This is the latest recevied weather packets stored in our database for station/object M0SDM. If no packets are shown the sender has not sent any weather packets the latest 10 day(s).
| Time | Temp. | Humidity | Pressure | Rain* | Wind** | Luminosity | Snow |
|---|---|---|---|---|---|---|---|
| 1778077521 | 8.89° C | 87% | 1012.6 hPa | 0 mm | - | - | - |
| 1778076621 | 9.44° C | 84% | 1012.6 hPa | 0 mm | - | - | - |
| 1778075721 | 9.44° C | 80% | 1012.4 hPa | 0 mm | - | - | - |
| 1778074821 | 10.56° C | 75% | 1012.4 hPa | 0 mm | - | - | - |
| 1778073921 | 10.56° C | 73% | 1012.6 hPa | 0 mm | - | - | - |
| 1778073021 | 11.67° C | 69% | 1012.6 hPa | 0 mm | - | - | - |
| 1778072121 | 12.22° C | 67% | 1012.5 hPa | 0 mm | - | - | - |
| 1778071221 | 11.67° C | 66% | 1012.5 hPa | 0 mm | - | - | - |
| 1778070321 | 11.11° C | 66% | 1012.9 hPa | 0 mm | - | - | - |
| 1778069421 | 10.56° C | 65% | 1012.7 hPa | 0 mm | - | - | - |
| 1778068521 | 11.11° C | 64% | 1012.8 hPa | 0 mm | - | - | - |
| 1778067621 | 10.56° C | 65% | 1013.2 hPa | 0 mm | - | - | - |
| 1778066721 | 10.56° C | 68% | 1013.1 hPa | 0 mm | - | - | - |
| 1778065821 | 10° C | 71% | 1013.1 hPa | 0 mm | - | - | - |
| 1778064921 | 9.44° C | 72% | 1013.2 hPa | 0 mm | - | - | - |
| 1778064021 | 10° C | 72% | 1013.2 hPa | 0 mm | - | - | - |
| 1778063121 | 10° C | 70% | 1013.2 hPa | 0 mm | - | - | - |
| 1778062221 | 12.22° C | 66% | 1013.3 hPa | 0 mm | - | - | - |
| 1778061321 | 11.11° C | 69% | 1013.7 hPa | 0 mm | - | - | - |
| 1778060421 | 9.44° C | 77% | 1013.5 hPa | 0 mm | - | - | - |
| 1778059521 | 8.89° C | 79% | 1013.6 hPa | 0 mm | - | - | - |
| 1778058621 | 8.89° C | 79% | 1013.7 hPa | 0 mm | - | - | - |
| 1778057721 | 8.33° C | 82% | 1013.9 hPa | 0 mm | - | - | - |
| 1778056821 | 7.78° C | 84% | 1014.2 hPa | 0 mm | - | - | - |
| 1778055921 | 7.22° C | 84% | 1014.1 hPa | 0 mm | - | - | - |
* Rain latest hour (hover to see other rain measurements)
** Current wind speed in m/s (hover to see current wind gust speed)